Data for 07/16/2010

Time Sea-Level Adjusted Pressure Absolute Pressure Temperature Relative Humidity Dew Point   
(mb) (inHg) (mb) (inHg) (C) (F) (%) (C) (F)
00:05 1022 30.18 851 25.13 18.2 64.7 41 5 41
00:10 1022 30.18 851 25.13 18 64.4 41 4.7 40.5
00:15 1022 30.18 851 25.13 18 64.4 40 4.4 40
00:20 1022 30.18 851 25.13 18.1 64.5 44 5.8 42.5
00:25 1022 30.18 851 25.13 18.1 64.5 39 4 39.3
00:30 1022 30.18 851 25.13 18.3 64.9 41 5 41
00:35 1022 30.18 851 25.13 17.9 64.2 42 4.9 40.8
00:40 1022 30.18 851 25.13 17.7 63.8 41 4.5 40.2
00:45 1022 30.18 851 25.13 17.6 63.6 41 4.3 39.8
00:50 1022 30.18 851 25.13 17.7 63.9 42 4.8 40.7
00:55 1022 30.18 851 25.13 17.4 63.3 43 4.9 40.8
01:00 1022 30.18 851 25.13 17.1 62.9 45 5.1 41.2
01:05 1022 30.18 851 25.13 17 62.7 43 4.5 40.2
01:10 1022 30.18 851 25.13 17.1 62.8 44 4.8 40.7
01:15 1022 30.18 851 25.13 17 62.6 47 5.7 42.3
01:20 1022 30.18 851 25.13 17 62.5 43 4.5 40.1
01:25 1022 30.18 851 25.13 17.1 62.8 43 4.6 40.3
01:30 1022 30.18 851 25.13 17 62.6 43 4.4 39.9
01:35 1022 30.18 851 25.13 17 62.6 43 4.4 40
01:40 1022 30.18 851 25.13 16.9 62.4 45 4.9 40.8
01:45 1022 30.18 851 25.13 16.5 61.7 45 4.6 40.3
01:50 1022 30.18 851 25.13 16.6 61.8 44 4.5 40.1
01:55 1022 30.18 851 25.13 16.5 61.8 46 4.9 40.9
02:00 1022 30.18 851 25.13 16.2 61.1 48 5.3 41.6
02:05 1022 30.18 851 25.13 15.8 60.5 50 5.6 42.1
02:10 1022 30.18 851 25.13 15.6 60.1 54 6.3 43.4
02:15 1022 30.18 851 25.13 15.1 59.2 53 5.6 42
02:20 1022 30.18 851 25.13 14.8 58.6 54 5.6 42
02:25 1022 30.18 851 25.13 14.3 57.8 55 5.6 42
02:30 1022 30.18 851 25.13 14 57.2 55 5.3 41.5
02:35 1022 30.18 851 25.13 14.5 58 52 4.7 40.5
02:40 1022 30.18 851 25.13 15.2 59.4 48 4.4 40
02:45 1022 30.18 851 25.13 15.6 60.1 49 4.9 40.9
02:50 1022 30.18 851 25.13 15.2 59.4 48 4.5 40.1
02:55 1022 30.18 851 25.13 15 59.1 48 4.3 39.8
03:00 1022 30.18 851 25.13 15.2 59.4 48 4.4 39.9
03:05 1022 30.18 851 25.13 15.1 59.2 50 4.8 40.7
03:10 1022 30.18 851 25.13 14.8 58.6 50 4.5 40.1
03:15 1022 30.18 851 25.13 14.7 58.5 51 4.7 40.5
03:20 1022 30.18 851 25.13 14.5 58.2 50 4.4 39.9
03:25 1022 30.18 851 25.13 14.9 58.8 48 4.2 39.5
03:30 1022 30.18 851 25.13 14.8 58.6 49 4.1 39.4
03:35 1022 30.18 851 25.13 15 59.1 48 4.1 39.4
03:40 1022 30.18 851 25.13 15.2 59.3 47 4.1 39.4
03:45 1022 30.18 851 25.13 15.1 59.1 50 4.8 40.7
03:50 1022 30.18 851 25.13 14.5 58 50 4.3 39.8
03:55 1022 30.18 851 25.13 14.5 58 51 4.5 40.1
04:00 1022 30.18 851 25.13 14.3 57.7 50 4.1 39.4
04:05 1022 30.18 851 25.13 14.4 57.8 52 4.7 40.5
04:10 1022 30.18 851 25.13 14 57.2 53 4.6 40.3
04:15 1022 30.18 851 25.13 13.8 56.8 53 4.5 40
04:20 1022 30.18 851 25.13 13.9 57 52 4.4 39.9
04:25 1022 30.18 851 25.13 13.9 56.9 53 4.5 40.1
04:30 1022 30.18 851 25.13 13.7 56.7 53 4.5 40
04:35 1022 30.18 851 25.13 13.9 57 51 3.9 39
04:40 1022 30.18 851 25.13 14.3 57.8 50 4 39.2
04:45 1022 30.18 851 25.13 14.4 58 49 3.9 39.1
04:50 1022 30.18 851 25.13 14.5 58.1 49 3.9 39
04:55 1022 30.18 851 25.13 14.4 58 50 4.2 39.6
05:00 1022 30.18 851 25.13 13.9 57.1 52 4.3 39.8
05:05 1022 30.18 851 25.13 13.8 56.9 51 4.1 39.3
05:10 1022 30.18 851 25.13 13.8 56.9 52 4.2 39.5
05:15 1022 30.18 851 25.13 13.9 57 51 3.9 39.1
05:20 1022 30.18 851 25.13 14.1 57.3 50 3.9 39.1
05:25 1022 30.18 851 25.13 14.2 57.6 49 3.7 38.7
05:30 1022 30.18 851 25.13 14.6 58.3 46 3.3 38
05:35 1022 30.18 851 25.13 14.9 58.8 47 3.6 38.6
05:40 1022 30.18 851 25.13 14.7 58.5 47 3.7 38.7
05:45 1022 30.18 851 25.13 14.5 58.1 48 3.8 38.8
05:50 1022 30.18 851 25.13 14.3 57.8 50 4 39.3
05:55 1022 30.18 851 25.13 14.1 57.4 49 3.7 38.7
06:00 1022 30.18 851 25.13 14.2 57.6 49 3.7 38.7
06:05 1022 30.18 851 25.13 14.3 57.8 49 3.8 38.8
06:10 1022 30.18 851 25.13 14.4 57.9 47 3.3 38
06:15 1022 30.18 851 25.13 14.8 58.6 47 3.8 38.8
06:20 1022 30.18 851 25.13 14.5 58.1 48 3.8 38.8
06:25 1022 30.18 851 25.13 14.4 57.9 49 4 39.2
06:30 1022 30.18 851 25.13 14.4 57.8 48 3.5 38.3
06:35 1022 30.18 851 25.13 14.5 58.2 49 4 39.3
06:40 1022 30.18 851 25.13 14.4 58 48 3.7 38.7
06:45 1022 30.18 851 25.13 14.5 58 50 4.1 39.4
06:50 1022 30.18 851 25.13 14.3 57.7 50 4.2 39.6
06:55 1022 30.18 851 25.13 14.3 57.8 51 4.3 39.7
07:00 1022 30.18 851 25.13 14.6 58.2 50 4.4 39.8
07:05 1022 30.18 851 25.13 14.9 58.8 48 4.2 39.6
07:10 1022 30.18 851 25.13 15.2 59.4 48 4.4 40
07:15 1022 30.18 851 25.13 15.4 59.7 48 4.5 40.1
07:20 1022 30.18 851 25.13 15.6 60 48 4.7 40.4
07:25 1022 30.18 851 25.13 15.8 60.4 46 4.4 39.9
07:30 1022 30.18 851 25.13 16.2 61.1 46 4.8 40.6
07:35 1022 30.18 851 25.13 16.4 61.4 48 5.5 41.9
07:40 1022 30.18 852 25.16 16.3 61.3 48 5.3 41.6
07:45 1022 30.18 852 25.16 16.7 62 47 5.4 41.7
07:50 1022 30.18 852 25.16 17.1 62.7 46 5.4 41.7
07:55 1022 30.18 852 25.16 17.5 63.5 45 5.7 42.3
08:00 1022 30.18 852 25.16 18.1 64.7 43 5.5 41.9
08:05 1022 30.18 852 25.16 18.5 65.2 41 5.1 41.3
08:10 1022 30.18 852 25.16 19 66.2 41 5.6 42.1
08:15 1022 30.18 852 25.16 19.5 67 42 6.4 43.5
08:20 1022 30.18 852 25.16 19.7 67.4 41 6.3 43.3
08:25 1022 30.18 852 25.16 19.7 67.5 39 5.6 42.1
08:30 1022 30.18 852 25.16 20.3 68.5 42 6.9 44.5
08:35 1022 30.18 851 25.13 20.6 69 38 6 42.9
08:40 1022 30.18 852 25.16 20.5 68.8 36 5.1 41.2
08:45 1022 30.18 852 25.16 20.9 69.7 35 5.2 41.4
08:50 1022 30.18 851 25.13 21.6 71 36 5.9 42.7
08:55 1022 30.18 851 25.13 21.6 71 33 5 41.1
09:00 1022 30.18 851 25.13 21.4 70.5 32 4.1 39.3
09:05 1022 30.18 851 25.13 21.5 70.8 34 5.2 41.4
09:10 1022 30.18 851 25.13 21.9 71.4 35 6.1 42.9
09:15 1022 30.18 851 25.13 22.3 72.1 35 6.4 43.5
09:20 1022 30.18 851 25.13 22.6 72.7 34 6.3 43.3
09:25 1022 30.18 851 25.13 22.4 72.3 33 5.7 42.3
09:30 1022 30.18 851 25.13 22.4 72.2 34 5.8 42.4
09:35 1022 30.18 851 25.13 22.5 72.6 33 5.6 42.1
09:40 1022 30.18 851 25.13 22.9 73.1 31 4.9 40.9
09:45 1022 30.18 851 25.13 23.3 74 32 6 42.8
09:50 1022 30.18 851 25.13 23.6 74.4 32 6 42.8
09:55 1022 30.18 851 25.13 23.5 74.2 31 5.5 41.9
10:00 1022 30.18 851 25.13 23.4 74.1 31 5.3 41.5
10:05 1022 30.18 851 25.13 23.9 75.1 30 5.3 41.6
10:10 1022 30.18 851 25.13 24.5 76.1 26 3.9 39
10:15 1022 30.18 851 25.13 25 77 25 4 39.3
10:20 1022 30.18 851 25.13 25.3 77.5 25 4.3 39.8
10:25 1021 30.15 851 25.13 25.4 77.6 23 2.8 37.1
10:30 1021 30.15 851 25.13 25.4 77.7 25 4 39.1
10:35 1021 30.15 851 25.13 26.1 79 25 5 41
10:40 1021 30.15 851 25.13 26.1 78.9 26 5.2 41.4
10:45 1021 30.15 850 25.1 26.7 80 25 5.2 41.3
10:50 1021 30.15 850 25.1 27.2 80.9 24 5.2 41.4
10:55 1021 30.15 850 25.1 27.2 80.9 26 6 42.9
11:00 1021 30.15 850 25.1 27.1 80.8 24 5.3 41.5
11:05 1021 30.15 850 25.1 27.8 82.1 24 5.4 41.8
11:10 1021 30.15 850 25.1 26.8 80.3 23 4.1 39.3
11:15 1021 30.15 850 25.1 26.9 80.5 22 3.7 38.6
11:20 1021 30.15 850 25.1 27.5 81.4 21 3.5 38.3
11:25 1021 30.15 850 25.1 27.3 81.2 21 3.2 37.8
11:30 1021 30.15 850 25.1 28.2 82.7 21 3.8 38.9
11:35 1021 30.15 850 25.1 28.9 84 19 3.1 37.6
11:40 1021 30.15 850 25.1 28.8 83.8 19 3.4 38.1
11:45 1021 30.15 850 25.1 28.8 83.8 20 3.6 38.4
11:50 1021 30.15 850 25.1 28.4 83.2 19 3 37.3
11:55 1021 30.15 850 25.1 29.3 84.7 19 3.2 37.8
12:00 1021 30.15 850 25.1 29.8 85.7 18 3.3 38
12:05 1021 30.15 850 25.1 30 85.9 19 4.3 39.8
12:10 1021 30.15 850 25.1 29.4 84.9 20 4.4 39.9
12:15 1021 30.15 850 25.1 29.1 84.4 18 2.6 36.6
12:20 1021 30.15 850 25.1 29.2 84.6 18 2.8 37.1
12:25 1021 30.15 850 25.1 30.3 86.6 18 3.6 38.4
12:30 1021 30.15 850 25.1 30 85.9 16 2.1 35.7
12:35 1020 30.12 850 25.1 30.5 86.8 16 1.8 35.2
12:40 1020 30.12 850 25.1 30.8 87.5 17 3.1 37.6
12:45 1020 30.12 850 25.1 29.8 85.6 18 3.3 37.9
12:50 1020 30.12 849 25.07 29.3 84.8 19 3.3 37.9
12:55 1020 30.12 849 25.07 30.2 86.4 15 0.7 33.3
13:00 1020 30.12 849 25.07 31 87.8 14 1.3 34.3
13:05 1020 30.12 849 25.07 31 87.7 15 1.9 35.4
13:10 1020 30.12 849 25.07 31 87.8 15 1.3 34.3
13:15 1020 30.12 849 25.07 31.1 88 14 1.3 34.4
13:20 1020 30.12 849 25.07 31.5 88.7 14 1.4 34.5
13:25 1020 30.12 849 25.07 31.6 88.9 14 0.9 33.7
13:30 1020 30.12 849 25.07 30.8 87.5 14 0.8 33.4
13:35 1020 30.12 849 25.07 31.4 88.5 14 0.7 33.3
13:40 1019 30.09 849 25.07 32.4 90.4 13 1.2 34.2
13:45 1019 30.09 849 25.07 32 89.5 15 2.1 35.9
13:50 1019 30.09 849 25.07 31.4 88.6 16 2.6 36.6
13:55 1019 30.09 849 25.07 30.7 87.2 15 1.5 34.6
14:00 1019 30.09 848 25.04 31.1 88 15 2 35.5
14:05 1019 30.09 848 25.04 31 87.8 15 1.7 35.1
14:10 1019 30.09 848 25.04 31.7 89.1 15 2 35.6
14:15 1019 30.09 848 25.04 31.9 89.5 15 2.3 36.1
14:20 1019 30.09 848 25.04 32.3 90.1 15 2.7 36.9
14:25 1019 30.09 848 25.04 32.5 90.5 14 1.9 35.4
14:30 1019 30.09 848 25.04 31.9 89.5 13 0.6 33
14:35 1019 30.09 848 25.04 31.7 89 13 0.5 33
14:40 1019 30.09 848 25.04 31.8 89.2 13 -0.2 31.7
14:45 1018 30.06 848 25.04 32.1 89.7 12 -0.1 31.8
14:50 1018 30.06 848 25.04 31.9 89.5 13 0.7 33.2
14:55 1018 30.06 848 25.04 31.9 89.4 13 0.3 32.6
15:00 1018 30.06 847 25.01 32.3 90.1 12 0 32
15:05 1018 30.06 847 25.01 32.6 90.6 13 0.7 33.3
15:10 1018 30.06 847 25.01 32.8 91 12 0.1 32.2
15:15 1018 30.06 847 25.01 32.8 91 12 0.2 32.3
15:20 1018 30.06 847 25.01 32.7 90.9 12 -0.2 31.7
15:25 1018 30.06 847 25.01 32.4 90.2 12 0.2 32.3
15:30 1018 30.06 847 25.01 32.5 90.5 12 0 32
15:35 1018 30.06 847 25.01 32.7 90.9 12 0.2 32.3
15:40 1018 30.06 847 25.01 32.7 90.9 12 0 32
15:45 1018 30.06 847 25.01 33.1 91.7 12 0.7 33.3
15:50 1018 30.06 847 25.01 32.8 91 13 0.6 33.1
15:55 1018 30.06 847 25.01 32.8 91 12 0.5 32.8
16:00 1018 30.06 847 25.01 32.7 90.9 13 0.7 33.3
16:05 1018 30.06 847 25.01 32.5 90.6 13 0.5 32.9
16:10 1018 30.06 847 25.01 32.9 91.3 12 0 32
16:15 1018 30.06 847 25.01 32.5 90.5 13 0.7 33.3
16:20 1018 30.06 847 25.01 32.3 90.1 12 -0.2 31.7
16:25 1017 30.03 847 25.01 32.2 90 13 0.8 33.5
16:30 1017 30.03 847 25.01 33.2 91.7 12 -0.2 31.7
16:35 1017 30.03 847 25.01 33.2 91.8 12 0.9 33.7
16:40 1017 30.03 846 24.98 32.9 91.2 12 0.6 33.2
16:45 1017 30.03 846 24.98 33.1 91.5 12 -0.2 31.7
16:50 1017 30.03 846 24.98 33.2 91.7 12 0.1 32.2
16:55 1017 30.03 846 24.98 33.3 91.9 13 1.1 34
17:00 1017 30.03 846 24.98 33.3 92 12 0.5 33
17:05 1017 30.03 846 24.98 33.3 91.9 12 1 33.8
17:10 1017 30.03 846 24.98 33.2 91.7 13 1.5 34.6
17:15 1017 30.03 846 24.98 33 91.4 13 1.4 34.6
17:20 1017 30.03 846 24.98 32.9 91.1 13 1.1 34
17:25 1017 30.03 846 24.98 32.8 91.1 12 0.3 32.6
17:30 1017 30.03 846 24.98 32.7 90.9 13 1.1 34
17:35 1017 30.03 846 24.98 32.9 91.3 14 1.9 35.4
17:40 1017 30.03 846 24.98 32.7 90.8 14 2.4 36.4
17:45 1017 30.03 846 24.98 32.1 89.8 14 1.8 35.2
17:50 1017 30.03 846 24.98 31.8 89.3 15 2.3 36.2
17:55 1017 30.03 846 24.98 32 89.5 14 1.7 35
18:00 1017 30.03 846 24.98 32.1 89.9 14 2 35.7
18:05 1017 30.03 846 24.98 32 89.6 15 2.1 35.8
18:10 1017 30.03 846 24.98 32.2 89.9 14 1.5 34.7
18:15 1016 30 846 24.98 32.2 90 14 1.7 35.1
18:20 1016 30 846 24.98 32.3 90.1 15 2.7 36.8
18:25 1016 30 846 24.98 32.2 90 15 2.5 36.6
18:30 1016 30 846 24.98 32.4 90.4 14 2.1 35.8
18:35 1016 30 846 24.98 32.7 90.9 14 2.4 36.3
18:40 1016 30 846 24.98 32.7 90.8 15 2.8 37
18:45 1016 30 845 24.95 32 89.5 15 2.8 37
18:50 1016 30 845 24.95 32.1 89.8 15 2.8 37
18:55 1016 30 845 24.95 32.2 89.9 16 3.3 37.9
19:00 1016 30 845 24.95 31.8 89.2 16 3.5 38.3
19:05 1016 30 845 24.95 31.6 88.8 16 3.3 38
19:10 1016 30 845 24.95 31.2 88.1 18 4.2 39.6
19:15 1016 30 845 24.95 30.7 87.2 19 4.6 40.3
19:20 1016 30 845 24.95 30.3 86.6 18 4 39.1
19:25 1016 30 845 24.95 30.3 86.5 17 2.6 36.7
19:30 1016 30 845 24.95 30.1 86.2 17 3.1 37.6
19:35 1016 30 845 24.95 29.9 85.8 17 3 37.3
19:40 1016 30 845 24.95 29.8 85.7 18 2.9 37.3
19:45 1016 30 845 24.95 29.6 85.4 18 3 37.4
19:50 1016 30 845 24.95 29.5 85.2 18 3.1 37.6
19:55 1016 30 845 24.95 29.5 85 19 3.5 38.3
20:00 1016 30 845 24.95 29.3 84.8 18 3.1 37.6
20:05 1016 30 845 24.95 29.3 84.7 19 3.5 38.3
20:10 1016 30 845 24.95 29.4 84.9 18 2.8 37
20:15 1016 30 845 24.95 29.5 85 19 3.7 38.6
20:20 1016 30 845 24.95 29.1 84.4 20 3.9 39.1
20:25 1016 30 845 24.95 28.8 83.8 22 5.2 41.4
20:30 1016 30 845 24.95 28.1 82.7 24 5.7 42.2
20:35 1016 30 845 24.95 27.5 81.5 24 5.7 42.3
20:40 1016 30 845 24.95 27.4 81.4 25 5.8 42.4
20:45 1016 30 845 24.95 27.3 81.2 24 5.2 41.4
20:50 1016 30 845 24.95 27.8 82 23 4.9 40.8
20:55 1016 30 845 24.95 28 82.5 24 5.9 42.6
21:00 1016 30 845 24.95 27.6 81.8 26 6.5 43.7
21:05 1016 30 845 24.95 27.2 80.9 25 5.7 42.3
21:10 1016 30 845 24.95 27.3 81.1 23 4.7 40.5
21:15 1016 30 845 24.95 27.6 81.6 23 4.7 40.4
21:20 1016 30 845 24.95 27.6 81.7 24 5.3 41.6
21:25 1016 30 845 24.95 27.1 80.8 25 5.9 42.6
21:30 1016 30 846 24.98 26.5 79.6 27 6.2 43.1
21:35 1016 30 846 24.98 26.1 79 27 5.8 42.5
21:40 1016 30 846 24.98 25.8 78.5 28 6.4 43.5
21:45 1017 30.03 846 24.98 25.4 77.8 30 6.9 44.4
21:50 1017 30.03 846 24.98 24.9 76.8 30 6.4 43.6
21:55 1017 30.03 846 24.98 24.8 76.6 30 6.4 43.5
22:00 1017 30.03 846 24.98 24.8 76.6 29 5.9 42.6
22:05 1017 30.03 846 24.98 24.8 76.6 29 5.8 42.5
22:10 1017 30.03 846 24.98 24.6 76.3 30 5.9 42.6
22:15 1017 30.03 846 24.98 24.3 75.8 30 5.8 42.4
22:20 1017 30.03 847 25.01 24.3 75.7 29 5.3 41.5
22:25 1017 30.03 847 25.01 24.3 75.8 28 4.9 40.8
22:30 1018 30.06 847 25.01 24.3 75.8 28 5.1 41.1
22:35 1018 30.06 847 25.01 24.3 75.7 27 4.2 39.6
22:40 1018 30.06 847 25.01 24.4 75.9 27 4.2 39.6
22:45 1018 30.06 847 25.01 24.3 75.7 27 4.2 39.5
22:50 1018 30.06 847 25.01 24 75.2 27 4.3 39.7
22:55 1018 30.06 847 25.01 23.7 74.7 27 3.6 38.5
23:00 1018 30.06 847 25.01 23.6 74.5 27 3.7 38.7
23:05 1018 30.06 847 25.01 23.7 74.6 27 3.8 38.9
23:10 1018 30.06 847 25.01 23.6 74.4 29 4.7 40.4
23:15 1018 30.06 847 25.01 23.5 74.2 26 3.2 37.8
23:20 1018 30.06 847 25.01 23.3 73.9 27 3.6 38.5
23:25 1018 30.06 847 25.01 22.8 73 28 3.3 37.9
23:30 1018 30.06 848 25.04 22.5 72.6 28 3.3 37.9
23:35 1018 30.06 848 25.04 22.4 72.4 29 3.8 38.8
23:40 1019 30.09 848 25.04 21.9 71.3 31 4.1 39.4
23:45 1019 30.09 848 25.04 21.1 70 31 3.6 38.5
23:50 1019 30.09 848 25.04 21.2 70.1 30 3.1 37.5
23:55 1019 30.09 848 25.04 21.5 70.6 29 3 37.5
24:00 1019 30.09 848 25.04 21.7 71 30 3.5 38.3